Zim Qingdao — A8IZ2 — position and weather

sailwx.info

Track history (hours):
 
Tides and Currents Weather Stations Pressure Air Temp Water Temp Dewpoint Dewpoint Depression Visibility Wind Speed Wind Dir Waves Ship Positions

Zim Qingdao

Last reported at 2017-Nov-15 09:09 UTC. Time now 2017-Nov-18 14:20 UTC.
Position N 31°57' W 080°38'.

Length 260.61 m; beam 32.25 m; draft 12.6 m.

Type: Ship (hazmat cat A). MMSI: 636012904.

Date/timePositionNaut miles runAvg speedWind from/ knotsBaromVisibWave heightAir tempDewpointWater temp
2017-Nov-15 09:09N 31°57' W 080°38'2 9.9
2017-Nov-15 08:58N 31°57' W 080°40'4 8.3
2017-Nov-15 08:30N 31°58' W 080°44'612.5
2017-Nov-15 08:00N 32°02' W 080°50'5 9.3
2017-Nov-15 07:30N 32°02' W 080°56'510.1
2017-Nov-15 07:00N 32°06' W 080°60'4 7.0
2017-Nov-15 06:30N 32°05' W 081°04'2 4.8
2017-Nov-15 06:00N 32°06' W 081°06'2 3.9
2017-Nov-15 05:30N 32°07' W 081°08'0 0.0
2017-Nov-15 04:54N 32°07' W 081°08'0 0.0
2017-Nov-15 04:30N 32°07' W 081°08'0 0.0
2017-Nov-15 04:00N 32°07' W 081°08'0 0.0
2017-Nov-15 03:24N 32°07' W 081°08'0 0.0
2017-Nov-15 02:54N 32°07' W 081°08'0 0.0
2017-Nov-15 02:30N 32°07' W 081°08'0 0.0
2017-Nov-15 02:00N 32°07' W 081°08'0 0.0
2017-Nov-15 01:30N 32°07' W 081°08'0 0.0
2017-Nov-15 01:00N 32°07' W 081°08'0 0.0
2017-Nov-15 00:30N 32°07' W 081°08'0 0.0
2017-Nov-15 00:00N 32°07' W 081°08'0 0.0
2017-Nov-14 23:30N 32°07' W 081°08'0 0.0
2017-Nov-14 23:00N 32°07' W 081°08'0 0.0
2017-Nov-14 22:30N 32°07' W 081°08'0 0.0
2017-Nov-14 22:00N 32°07' W 081°08'0 0.0
2017-Nov-14 21:30N 32°07' W 081°08'0 0.0
2017-Nov-14 21:00N 32°07' W 081°08'0 0.0
2017-Nov-14 20:30N 32°07' W 081°08'0 0.0
2017-Nov-14 20:00N 32°07' W 081°08'0 0.0
2017-Nov-14 19:30N 32°07' W 081°08'0 0.0
2017-Nov-14 19:00N 32°07' W 081°08'0 0.0
2017-Nov-14 18:30N 32°07' W 081°08'0 0.0
2017-Nov-14 17:54N 32°07' W 081°08'0 0.0
2017-Nov-14 17:30N 32°07' W 081°08'0 0.0
2017-Nov-14 17:00N 32°07' W 081°08'0 0.0
2017-Nov-14 16:30N 32°07' W 081°08'0 0.0
2017-Nov-14 16:00N 32°07' W 081°08'0 0.0
2017-Nov-14 15:30N 32°07' W 081°08'0 0.0
2017-Nov-14 15:00N 32°07' W 081°08'0 0.0
2017-Nov-14 14:30N 32°07' W 081°08'0 0.0
2017-Nov-14 13:54N 32°07' W 081°08'0 0.0
2017-Nov-14 13:30N 32°07' W 081°08'0 0.0
2017-Nov-14 13:00N 32°07' W 081°08'0 0.0
2017-Nov-14 12:30N 32°07' W 081°08'0 0.0
2017-Nov-14 11:42N 32°07' W 081°08'0 0.0
2017-Nov-14 11:24N 32°07' W 081°08'0 0.0
2017-Nov-14 11:01N 32°07' W 081°08'1 1.4
2017-Nov-14 10:31N 32°08' W 081°08'1 3.0
2017-Nov-14 10:01N 32°07' W 081°07'3 5.5
2017-Nov-14 09:31N 32°05' W 081°05'3 6.5
2017-Nov-14 09:01N 32°06' W 081°01'5 9.9
2017-Nov-14 08:30N 32°03' W 080°56'5 9.0
2017-Nov-14 08:00N 32°02' W 080°51'612.3
2017-Nov-14 07:31N 31°59' W 080°45'5 9.4
2017-Nov-14 07:01N 31°57' W 080°40'5 9.8
2017-Nov-14 06:29N 31°56' W 080°34'510.0
2017-Nov-14 06:01N 31°56' W 080°28'510.1
2017-Nov-14 05:28N 31°57' W 080°22'37013.5
2017-Nov-13 02:00N 36°56' W 075°58'510.4
2017-Nov-13 01:30N 36°58' W 076°04'1310.4
2017-Nov-13 00:16N 36°58' W 076°20'2 8.2
2017-Nov-13 00:01N 36°56' W 076°20'1 0.4
2017-Nov-12 22:25N 36°56' W 076°20'0 0.0
2017-Nov-12 20:04N 36°56' W 076°20'0 0.0
2017-Nov-12 19:58N 36°56' W 076°20'0 0.0
2017-Nov-12 19:28N 36°56' W 076°20'0 0.0
2017-Nov-12 18:58N 36°56' W 076°20'0 0.0
2017-Nov-12 18:28N 36°56' W 076°20'0 0.0
2017-Nov-12 17:58N 36°56' W 076°20'0 0.0
2017-Nov-12 17:19N 36°56' W 076°20'0 0.0
2017-Nov-12 16:34N 36°56' W 076°20'0 0.0
2017-Nov-12 15:19N 36°56' W 076°20'0 0.0
2017-Nov-12 14:58N 36°56' W 076°20'0 0.0
2017-Nov-12 14:28N 36°56' W 076°20'0 0.0
2017-Nov-12 13:58N 36°56' W 076°20'0 0.0
2017-Nov-12 13:28N 36°56' W 076°20'0 0.0
2017-Nov-12 12:58N 36°56' W 076°20'0 0.0
2017-Nov-12 12:22N 36°56' W 076°20'0 0.0
2017-Nov-12 11:25N 36°56' W 076°20'0 0.8
2017-Nov-12 11:01N 36°56' W 076°20'2 4.6
2017-Nov-12 10:30N 36°58' W 076°20'811.6
2017-Nov-12 09:50N 36°59' W 076°10'515.1
2017-Nov-12 09:30N 36°58' W 076°05'612.6
2017-Nov-12 09:00N 36°56' W 075°57'4 7.1
2017-Nov-12 08:30N 36°54' W 075°54'3 6.6
2017-Nov-12 08:00N 36°52' W 075°51'18113.8
2017-Nov-11 18:55N 39°30' W 073°58'715.4
2017-Nov-11 18:30N 39°36' W 073°56'815.4
2017-Nov-11 18:00N 39°44' W 073°54'815.4
2017-Nov-11 17:31N 39°51' W 073°53'2812.8
2017-Nov-11 15:19N 40°19' W 073°49'5 9.7
2017-Nov-11 14:49N 40°24' W 073°49'3 9.5
2017-Nov-11 14:29N 40°27' W 073°50'5 9.5
2017-Nov-11 13:58N 40°30' W 073°56'511.9
2017-Nov-11 13:31N 40°33' W 074°01'713.8
2017-Nov-11 13:00N 40°39' W 074°05'3 6.7
2017-Nov-11 12:30N 40°39' W 074°09'1 2.8
2017-Nov-11 11:59N 40°40' W 074°08'0 0.0
2017-Nov-11 11:29N 40°40' W 074°08'0 0.0
2017-Nov-11 10:59N 40°40' W 074°08'0 0.0
2017-Nov-11 10:29N 40°40' W 074°08'0 0.0
2017-Nov-11 09:59N 40°40' W 074°08'0 0.0
2017-Nov-11 09:29N 40°40' W 074°08'0 0.0
2017-Nov-11 08:59N 40°40' W 074°08'0 0.0
2017-Nov-11 08:29N 40°40' W 074°08'0 0.0
2017-Nov-11 07:59N 40°40' W 074°08'0 0.0
2017-Nov-11 07:29N 40°40' W 074°08'0 0.0
2017-Nov-11 06:59N 40°40' W 074°08'0 0.0
2017-Nov-11 06:29N 40°40' W 074°08'0 0.0
2017-Nov-11 05:59N 40°40' W 074°08'0 0.0
2017-Nov-11 05:29N 40°40' W 074°08'0 0.0
2017-Nov-11 04:59N 40°40' W 074°08'0 0.0
2017-Nov-11 04:29N 40°40' W 074°08'0 0.0
2017-Nov-11 03:59N 40°40' W 074°08'0 0.0
2017-Nov-11 03:29N 40°40' W 074°08'0 0.0
2017-Nov-11 02:59N 40°40' W 074°08'0 0.0
2017-Nov-11 02:29N 40°40' W 074°08'0 0.0
2017-Nov-11 01:59N 40°40' W 074°08'0 0.0
2017-Nov-11 01:29N 40°40' W 074°08'0 0.0
2017-Nov-11 00:59N 40°40' W 074°08'0 0.0
2017-Nov-11 00:29N 40°40' W 074°08'0 0.0
2017-Nov-10 23:59N 40°40' W 074°08'0 0.0
2017-Nov-10 23:29N 40°40' W 074°08'0 0.0
2017-Nov-10 22:59N 40°40' W 074°08'0 0.0
2017-Nov-10 22:29N 40°40' W 074°08'0 0.0
2017-Nov-10 21:59N 40°40' W 074°08'0 0.0
2017-Nov-10 21:29N 40°40' W 074°08'0 0.0
2017-Nov-10 20:59N 40°40' W 074°08'0 0.0
2017-Nov-10 20:29N 40°40' W 074°08'0 0.0
2017-Nov-10 19:59N 40°40' W 074°08'0 0.0
2017-Nov-10 19:29N 40°40' W 074°08'0 0.0
2017-Nov-10 18:59N 40°40' W 074°08'0 0.0
2017-Nov-10 18:26N 40°40' W 074°08'0 0.0
2017-Nov-10 17:59N 40°40' W 074°08'0 0.0
2017-Nov-10 17:29N 40°40' W 074°08'0 0.0
2017-Nov-10 16:59N 40°40' W 074°08'0 0.0
2017-Nov-10 16:29N 40°40' W 074°08'0 0.0
2017-Nov-10 15:59N 40°40' W 074°08'0 0.0
2017-Nov-10 15:29N 40°40' W 074°08'0 0.0
2017-Nov-10 14:59N 40°40' W 074°08'0 0.0
2017-Nov-10 14:29N 40°40' W 074°08'0 0.0
2017-Nov-10 13:59N 40°40' W 074°08'0 0.0
2017-Nov-10 13:29N 40°40' W 074°08'0 0.0
2017-Nov-10 12:59N 40°40' W 074°08'0 0.0
2017-Nov-10 12:29N 40°40' W 074°08'0 0.0
2017-Nov-10 12:01N 40°40' W 074°08'0 0.0
2017-Nov-10 11:30N 40°40' W 074°08'1 1.7
2017-Nov-10 11:00N 40°39' W 074°09'1 2.8
2017-Nov-10 10:30N 40°39' W 074°07'3 5.8
2017-Nov-10 10:00N 40°38' W 074°03'4 8.1
2017-Nov-10 09:31N 40°35' W 074°02'611.8
2017-Nov-10 09:00N 40°30' W 073°57'510.0
2017-Nov-10 08:30N 40°28' W 073°51'4 8.2
2017-Nov-10 07:58N 40°26' W 073°46'4 7.9
2017-Nov-10 07:28N 40°27' W 073°41'5 9.9
2017-Nov-10 06:58N 40°28' W 073°35'5 9.9
2017-Nov-10 06:28N 40°28' W 073°28'  
2017-Nov-07 18:00N 44°12' W 058°42'15312.7 340 / 251016.010.8 11.0 9.0
2017-Nov-07 06:00N 43°30' W 055°18'20517.1 180 / 181018.010.8 17.015.0
2017-Nov-06 18:00N 43°24' W 050°36'10918.2 120 / 151032.010.8 10.0 8.013.0
2017-Nov-06 12:00N 43°24' W 048°06'9215.3 090 / 141037.010.8 10.0 6.0
2017-Nov-06 06:00N 43°24' W 046°00'9215.3 080 / 201037.010.8 8.0 4.0
2017-Nov-06 00:00N 43°18' W 043°54'8313.9 340 / 251033.010.8 11.0 3.0
2017-Nov-05 18:00N 43°12' W 042°00'   340 / 251027.010.8 12.0 6.021.0
Track history (hours):
 
Tides and Currents Weather Stations Pressure Air Temp Water Temp Dewpoint Dewpoint Depression Visibility Wind Speed Wind Dir Waves Ship Positions

Zim Qingdao

Last reported at 2017-Nov-15 09:09 UTC. Time now 2017-Nov-18 14:20 UTC.
Position N 31°57' W 080°38'.

Length 260.61 m; beam 32.25 m; draft 12.6 m.

Type: Ship (hazmat cat A). MMSI: 636012904.

Date/timePositionNaut miles runAvg speedWind from/ knotsBaromVisibWave heightAir tempDewpointWater temp
2017-Nov-15 09:09N 31°57' W 080°38'2 9.9
2017-Nov-15 08:58N 31°57' W 080°40'4 8.3
2017-Nov-15 08:30N 31°58' W 080°44'612.5
2017-Nov-15 08:00N 32°02' W 080°50'5 9.3
2017-Nov-15 07:30N 32°02' W 080°56'510.1
2017-Nov-15 07:00N 32°06' W 080°60'4 7.0
2017-Nov-15 06:30N 32°05' W 081°04'2 4.8
2017-Nov-15 06:00N 32°06' W 081°06'2 3.9
2017-Nov-15 05:30N 32°07' W 081°08'0 0.0
2017-Nov-15 04:54N 32°07' W 081°08'0 0.0
2017-Nov-15 04:30N 32°07' W 081°08'0 0.0
2017-Nov-15 04:00N 32°07' W 081°08'0 0.0
2017-Nov-15 03:24N 32°07' W 081°08'0 0.0
2017-Nov-15 02:54N 32°07' W 081°08'0 0.0
2017-Nov-15 02:30N 32°07' W 081°08'0 0.0
2017-Nov-15 02:00N 32°07' W 081°08'0 0.0
2017-Nov-15 01:30N 32°07' W 081°08'0 0.0
2017-Nov-15 01:00N 32°07' W 081°08'0 0.0
2017-Nov-15 00:30N 32°07' W 081°08'0 0.0
2017-Nov-15 00:00N 32°07' W 081°08'0 0.0
2017-Nov-14 23:30N 32°07' W 081°08'0 0.0
2017-Nov-14 23:00N 32°07' W 081°08'0 0.0
2017-Nov-14 22:30N 32°07' W 081°08'0 0.0
2017-Nov-14 22:00N 32°07' W 081°08'0 0.0
2017-Nov-14 21:30N 32°07' W 081°08'0 0.0
2017-Nov-14 21:00N 32°07' W 081°08'0 0.0
2017-Nov-14 20:30N 32°07' W 081°08'0 0.0
2017-Nov-14 20:00N 32°07' W 081°08'0 0.0
2017-Nov-14 19:30N 32°07' W 081°08'0 0.0
2017-Nov-14 19:00N 32°07' W 081°08'0 0.0
2017-Nov-14 18:30N 32°07' W 081°08'0 0.0
2017-Nov-14 17:54N 32°07' W 081°08'0 0.0
2017-Nov-14 17:30N 32°07' W 081°08'0 0.0
2017-Nov-14 17:00N 32°07' W 081°08'0 0.0
2017-Nov-14 16:30N 32°07' W 081°08'0 0.0
2017-Nov-14 16:00N 32°07' W 081°08'0 0.0
2017-Nov-14 15:30N 32°07' W 081°08'0 0.0
2017-Nov-14 15:00N 32°07' W 081°08'0 0.0
2017-Nov-14 14:30N 32°07' W 081°08'0 0.0
2017-Nov-14 13:54N 32°07' W 081°08'0 0.0
2017-Nov-14 13:30N 32°07' W 081°08'0 0.0
2017-Nov-14 13:00N 32°07' W 081°08'0 0.0
2017-Nov-14 12:30N 32°07' W 081°08'0 0.0
2017-Nov-14 11:42N 32°07' W 081°08'0 0.0
2017-Nov-14 11:24N 32°07' W 081°08'0 0.0
2017-Nov-14 11:01N 32°07' W 081°08'1 1.4
2017-Nov-14 10:31N 32°08' W 081°08'1 3.0
2017-Nov-14 10:01N 32°07' W 081°07'3 5.5
2017-Nov-14 09:31N 32°05' W 081°05'3 6.5
2017-Nov-14 09:01N 32°06' W 081°01'5 9.9
2017-Nov-14 08:30N 32°03' W 080°56'5 9.0
2017-Nov-14 08:00N 32°02' W 080°51'612.3
2017-Nov-14 07:31N 31°59' W 080°45'5 9.4
2017-Nov-14 07:01N 31°57' W 080°40'5 9.8
2017-Nov-14 06:29N 31°56' W 080°34'510.0
2017-Nov-14 06:01N 31°56' W 080°28'510.1
2017-Nov-14 05:28N 31°57' W 080°22'37013.5
2017-Nov-13 02:00N 36°56' W 075°58'510.4
2017-Nov-13 01:30N 36°58' W 076°04'1310.4
2017-Nov-13 00:16N 36°58' W 076°20'2 8.2
2017-Nov-13 00:01N 36°56' W 076°20'1 0.4
2017-Nov-12 22:25N 36°56' W 076°20'0 0.0
2017-Nov-12 20:04N 36°56' W 076°20'0 0.0
2017-Nov-12 19:58N 36°56' W 076°20'0 0.0
2017-Nov-12 19:28N 36°56' W 076°20'0 0.0
2017-Nov-12 18:58N 36°56' W 076°20'0 0.0
2017-Nov-12 18:28N 36°56' W 076°20'0 0.0
2017-Nov-12 17:58N 36°56' W 076°20'0 0.0
2017-Nov-12 17:19N 36°56' W 076°20'0 0.0
2017-Nov-12 16:34N 36°56' W 076°20'0 0.0
2017-Nov-12 15:19N 36°56' W 076°20'0 0.0
2017-Nov-12 14:58N 36°56' W 076°20'0 0.0
2017-Nov-12 14:28N 36°56' W 076°20'0 0.0
2017-Nov-12 13:58N 36°56' W 076°20'0 0.0
2017-Nov-12 13:28N 36°56' W 076°20'0 0.0
2017-Nov-12 12:58N 36°56' W 076°20'0 0.0
2017-Nov-12 12:22N 36°56' W 076°20'0 0.0
2017-Nov-12 11:25N 36°56' W 076°20'0 0.8
2017-Nov-12 11:01N 36°56' W 076°20'2 4.6
2017-Nov-12 10:30N 36°58' W 076°20'811.6
2017-Nov-12 09:50N 36°59' W 076°10'515.1
2017-Nov-12 09:30N 36°58' W 076°05'612.6
2017-Nov-12 09:00N 36°56' W 075°57'4 7.1
2017-Nov-12 08:30N 36°54' W 075°54'3 6.6
2017-Nov-12 08:00N 36°52' W 075°51'18113.8
2017-Nov-11 18:55N 39°30' W 073°58'715.4
2017-Nov-11 18:30N 39°36' W 073°56'815.4
2017-Nov-11 18:00N 39°44' W 073°54'815.4
2017-Nov-11 17:31N 39°51' W 073°53'2812.8
2017-Nov-11 15:19N 40°19' W 073°49'5 9.7
2017-Nov-11 14:49N 40°24' W 073°49'3 9.5
2017-Nov-11 14:29N 40°27' W 073°50'5 9.5
2017-Nov-11 13:58N 40°30' W 073°56'511.9
2017-Nov-11 13:31N 40°33' W 074°01'713.8
2017-Nov-11 13:00N 40°39' W 074°05'3 6.7
2017-Nov-11 12:30N 40°39' W 074°09'1 2.8
2017-Nov-11 11:59N 40°40' W 074°08'0 0.0
2017-Nov-11 11:29N 40°40' W 074°08'0 0.0
2017-Nov-11 10:59N 40°40' W 074°08'0 0.0
2017-Nov-11 10:29N 40°40' W 074°08'0 0.0
2017-Nov-11 09:59N 40°40' W 074°08'0 0.0
2017-Nov-11 09:29N 40°40' W 074°08'0 0.0
2017-Nov-11 08:59N 40°40' W 074°08'0 0.0
2017-Nov-11 08:29N 40°40' W 074°08'0 0.0
2017-Nov-11 07:59N 40°40' W 074°08'0 0.0
2017-Nov-11 07:29N 40°40' W 074°08'0 0.0
2017-Nov-11 06:59N 40°40' W 074°08'0 0.0
2017-Nov-11 06:29N 40°40' W 074°08'0 0.0
2017-Nov-11 05:59N 40°40' W 074°08'0 0.0
2017-Nov-11 05:29N 40°40' W 074°08'0 0.0
2017-Nov-11 04:59N 40°40' W 074°08'0 0.0
2017-Nov-11 04:29N 40°40' W 074°08'0 0.0
2017-Nov-11 03:59N 40°40' W 074°08'0 0.0
2017-Nov-11 03:29N 40°40' W 074°08'0 0.0
2017-Nov-11 02:59N 40°40' W 074°08'0 0.0
2017-Nov-11 02:29N 40°40' W 074°08'0 0.0
2017-Nov-11 01:59N 40°40' W 074°08'0 0.0
2017-Nov-11 01:29N 40°40' W 074°08'0 0.0
2017-Nov-11 00:59N 40°40' W 074°08'0 0.0
2017-Nov-11 00:29N 40°40' W 074°08'0 0.0
2017-Nov-10 23:59N 40°40' W 074°08'0 0.0
2017-Nov-10 23:29N 40°40' W 074°08'0 0.0
2017-Nov-10 22:59N 40°40' W 074°08'0 0.0
2017-Nov-10 22:29N 40°40' W 074°08'0 0.0
2017-Nov-10 21:59N 40°40' W 074°08'0 0.0
2017-Nov-10 21:29N 40°40' W 074°08'0 0.0
2017-Nov-10 20:59N 40°40' W 074°08'0 0.0
2017-Nov-10 20:29N 40°40' W 074°08'0 0.0
2017-Nov-10 19:59N 40°40' W 074°08'0 0.0
2017-Nov-10 19:29N 40°40' W 074°08'0 0.0
2017-Nov-10 18:59N 40°40' W 074°08'0 0.0
2017-Nov-10 18:26N 40°40' W 074°08'0 0.0
2017-Nov-10 17:59N 40°40' W 074°08'0 0.0
2017-Nov-10 17:29N 40°40' W 074°08'0 0.0
2017-Nov-10 16:59N 40°40' W 074°08'0 0.0
2017-Nov-10 16:29N 40°40' W 074°08'0 0.0
2017-Nov-10 15:59N 40°40' W 074°08'0 0.0
2017-Nov-10 15:29N 40°40' W 074°08'0 0.0
2017-Nov-10 14:59N 40°40' W 074°08'0 0.0
2017-Nov-10 14:29N 40°40' W 074°08'0 0.0
2017-Nov-10 13:59N 40°40' W 074°08'0 0.0
2017-Nov-10 13:29N 40°40' W 074°08'0 0.0
2017-Nov-10 12:59N 40°40' W 074°08'0 0.0
2017-Nov-10 12:29N 40°40' W 074°08'0 0.0
2017-Nov-10 12:01N 40°40' W 074°08'0 0.0
2017-Nov-10 11:30N 40°40' W 074°08'1 1.7
2017-Nov-10 11:00N 40°39' W 074°09'1 2.8
2017-Nov-10 10:30N 40°39' W 074°07'3 5.8
2017-Nov-10 10:00N 40°38' W 074°03'4 8.1
2017-Nov-10 09:31N 40°35' W 074°02'611.8
2017-Nov-10 09:00N 40°30' W 073°57'510.0
2017-Nov-10 08:30N 40°28' W 073°51'4 8.2
2017-Nov-10 07:58N 40°26' W 073°46'4 7.9
2017-Nov-10 07:28N 40°27' W 073°41'5 9.9
2017-Nov-10 06:58N 40°28' W 073°35'5 9.9
2017-Nov-10 06:28N 40°28' W 073°28'  
2017-Nov-07 18:00N 44°12' W 058°42'15312.7 340 / 251016.010.8 11.0 9.0
2017-Nov-07 06:00N 43°30' W 055°18'20517.1 180 / 181018.010.8 17.015.0
2017-Nov-06 18:00N 43°24' W 050°36'10918.2 120 / 151032.010.8 10.0 8.013.0
2017-Nov-06 12:00N 43°24' W 048°06'9215.3 090 / 141037.010.8 10.0 6.0
2017-Nov-06 06:00N 43°24' W 046°00'9215.3 080 / 201037.010.8 8.0 4.0
2017-Nov-06 00:00N 43°18' W 043°54'8313.9 340 / 251033.010.8 11.0 3.0
2017-Nov-05 18:00N 43°12' W 042°00'   340 / 251027.010.8 12.0 6.021.0

Dump ship's entire track history